createdAt,value
2018-10-21T00:00:01.340Z,9.47
2018-10-21T00:02:30.643Z,9.00
2018-10-21T00:04:59.711Z,10.00
2018-10-21T00:07:28.843Z,9.70
2018-10-21T00:09:57.984Z,10.20
2018-10-21T00:12:27.133Z,10.10
2018-10-21T00:14:56.301Z,9.30
2018-10-21T00:17:25.418Z,9.30
2018-10-21T00:19:54.574Z,9.37
2018-10-21T00:22:23.675Z,8.60
2018-10-21T00:24:52.823Z,7.53
2018-10-21T00:27:21.985Z,7.70
2018-10-21T00:29:51.092Z,8.07
2018-10-21T00:32:20.299Z,8.60
2018-10-21T00:34:49.637Z,7.27
2018-10-21T00:37:18.830Z,7.87
2018-10-21T00:39:47.992Z,7.37
2018-10-21T00:42:17.195Z,6.73
2018-10-21T00:44:46.316Z,7.10
2018-10-21T00:47:15.466Z,8.40
2018-10-21T00:49:44.697Z,7.40
2018-10-21T00:52:13.825Z,7.93
2018-10-21T00:54:42.970Z,6.80
2018-10-21T00:57:12.173Z,7.27
2018-10-21T00:59:41.307Z,7.50
2018-10-21T01:02:10.438Z,8.10
2018-10-21T01:04:39.646Z,8.40
2018-10-21T01:07:09.239Z,8.10
2018-10-21T01:09:38.348Z,7.13
2018-10-21T01:12:07.506Z,6.67
2018-10-21T01:14:36.619Z,8.27
2018-10-21T01:17:05.970Z,6.70
2018-10-21T01:19:35.180Z,6.60
2018-10-21T01:22:04.437Z,7.07
2018-10-21T01:24:33.606Z,6.97
2018-10-21T01:27:02.831Z,7.00
2018-10-21T01:29:32.079Z,6.50
2018-10-21T01:32:01.384Z,6.37
2018-10-21T01:34:30.542Z,7.07
2018-10-21T01:36:59.949Z,5.60
2018-10-21T01:39:45.445Z,5.60
2018-10-21T01:42:14.586Z,5.27
2018-10-21T01:44:43.722Z,6.10
2018-10-21T01:47:12.941Z,7.30
2018-10-21T01:49:42.077Z,6.80
2018-10-21T01:52:11.195Z,6.77
2018-10-21T01:54:40.320Z,7.13
2018-10-21T01:57:09.561Z,6.53
2018-10-21T01:59:38.845Z,5.57
2018-10-21T02:02:08.029Z,6.90
2018-10-21T02:04:37.143Z,7.77
2018-10-21T02:07:06.382Z,8.17
2018-10-21T02:09:35.529Z,7.47
2018-10-21T02:12:04.674Z,7.17
2018-10-21T02:14:34.818Z,7.83
2018-10-21T02:17:03.957Z,7.27
2018-10-21T02:19:33.187Z,7.60
2018-10-21T02:22:02.439Z,8.77
2018-10-21T02:24:31.633Z,7.60
2018-10-21T02:27:00.804Z,8.53
2018-10-21T02:29:29.889Z,8.10
2018-10-21T02:31:59.009Z,7.70
2018-10-21T02:34:28.160Z,7.70
2018-10-21T02:36:57.427Z,7.10
2018-10-21T02:39:26.593Z,7.00
2018-10-21T02:41:57.021Z,5.13
2018-10-21T02:44:26.208Z,6.00
2018-10-21T02:46:56.700Z,6.10
2018-10-21T02:49:26.049Z,5.95
2018-10-21T02:52:00.434Z,6.73
2018-10-21T02:54:30.618Z,5.37
2018-10-21T02:56:59.881Z,6.60
2018-10-21T02:59:29.129Z,5.47
2018-10-21T03:01:58.314Z,5.80
2018-10-21T03:04:27.464Z,5.40
2018-10-21T03:06:56.610Z,6.10
2018-10-21T03:09:26.128Z,6.17
2018-10-21T03:11:55.372Z,5.60
2018-10-21T03:14:24.640Z,6.57
2018-10-21T03:16:53.783Z,6.33
2018-10-21T03:19:24.221Z,6.20
2018-10-21T03:21:53.354Z,6.43
2018-10-21T03:24:22.509Z,7.03
2018-10-21T03:26:51.612Z,6.50
2018-10-21T03:29:20.749Z,6.17
2018-10-21T03:31:49.862Z,6.97
2018-10-21T03:34:18.972Z,6.57
2018-10-21T03:36:48.118Z,6.90
2018-10-21T03:39:17.246Z,6.20
2018-10-21T03:41:46.422Z,5.90
2018-10-21T03:44:15.563Z,6.37
2018-10-21T03:46:44.705Z,6.10
2018-10-21T03:49:13.815Z,6.20
2018-10-21T03:51:42.941Z,5.70
2018-10-21T03:54:12.046Z,5.67
2018-10-21T03:56:41.158Z,5.30
2018-10-21T03:59:10.338Z,5.20
2018-10-21T04:01:41.125Z,5.40
2018-10-21T04:04:10.302Z,5.77
2018-10-21T04:06:39.384Z,5.87
2018-10-21T04:09:08.768Z,5.97
2018-10-21T04:11:37.877Z,5.50
2018-10-21T04:14:07.023Z,6.03
2018-10-21T04:16:36.119Z,6.30
2018-10-21T04:19:05.488Z,6.40
2018-10-21T04:21:34.650Z,6.00
2018-10-21T04:24:03.770Z,6.33
2018-10-21T04:26:32.999Z,6.20
2018-10-21T04:29:02.132Z,5.60
2018-10-21T04:31:31.265Z,5.70
2018-10-21T04:34:00.517Z,5.70
2018-10-21T04:36:31.119Z,5.87
2018-10-21T04:39:36.907Z,6.00
2018-10-21T04:42:06.028Z,6.90
2018-10-21T04:44:35.174Z,6.17
2018-10-21T04:47:04.614Z,6.13
2018-10-21T04:49:33.602Z,6.53
2018-10-21T04:52:02.815Z,6.67
2018-10-21T04:54:34.910Z,6.03
2018-10-21T04:57:06.358Z,6.47
2018-10-21T04:59:36.219Z,5.50
2018-10-21T05:02:05.412Z,5.87
2018-10-21T05:04:34.567Z,5.90
2018-10-21T05:07:03.730Z,6.77
2018-10-21T05:09:32.873Z,6.27
2018-10-21T05:12:02.003Z,5.83
2018-10-21T05:14:31.129Z,6.60
2018-10-21T05:17:00.259Z,6.50
2018-10-21T05:19:29.418Z,5.73
2018-10-21T05:21:58.608Z,6.30
2018-10-21T05:24:27.682Z,6.53
2018-10-21T05:26:56.827Z,5.60
2018-10-21T05:29:25.967Z,5.58
2018-10-21T05:31:55.094Z,6.20
2018-10-21T05:34:24.366Z,6.50
2018-10-21T05:36:53.507Z,6.10
2018-10-21T05:39:22.697Z,6.20
2018-10-21T05:41:51.937Z,6.73
2018-10-21T05:44:21.084Z,6.83
2018-10-21T05:46:51.524Z,6.20
2018-10-21T05:49:20.862Z,6.22
2018-10-21T05:51:51.207Z,6.03
2018-10-21T05:54:20.786Z,6.77
2018-10-21T05:56:51.107Z,6.30
2018-10-21T05:59:20.346Z,5.97
2018-10-21T06:01:49.563Z,6.73
2018-10-21T06:04:19.015Z,6.20
2018-10-21T06:06:48.200Z,5.90
2018-10-21T06:09:17.310Z,10.93
2018-10-21T06:11:46.501Z,7.50
2018-10-21T06:14:15.670Z,7.50
2018-10-21T06:16:50.935Z,6.83
2018-10-21T06:19:28.718Z,6.70
2018-10-21T06:21:57.883Z,7.35
2018-10-21T06:24:27.014Z,7.80
2018-10-21T06:26:56.309Z,8.27
2018-10-21T06:29:25.474Z,9.05
2018-10-21T06:31:54.708Z,7.50
2018-10-21T06:34:23.888Z,10.00
2018-10-21T06:36:53.100Z,8.23
2018-10-21T06:39:22.201Z,11.33
2018-10-21T06:41:51.649Z,12.90
2018-10-21T06:44:20.763Z,8.70
2018-10-21T06:46:49.877Z,9.10
2018-10-21T06:49:19.045Z,10.10
2018-10-21T06:51:48.193Z,9.30
2018-10-21T06:54:17.332Z,10.27
2018-10-21T06:56:46.696Z,10.37
2018-10-21T06:59:15.620Z,10.87
2018-10-21T07:01:44.894Z,10.20
2018-10-21T07:04:14.556Z,9.73
2018-10-21T07:06:43.677Z,9.53
2018-10-21T07:09:12.897Z,9.53
2018-10-21T07:11:42.074Z,9.33
2018-10-21T07:14:11.187Z,8.73
2018-10-21T07:16:42.016Z,8.30
2018-10-21T07:19:10.928Z,8.30
2018-10-21T07:21:40.158Z,7.10
2018-10-21T07:24:09.283Z,8.55
2018-10-21T07:26:38.454Z,9.20
2018-10-21T07:29:07.745Z,9.00
2018-10-21T07:31:36.944Z,10.60
2018-10-21T07:34:06.217Z,11.60
2018-10-21T07:36:38.597Z,10.80
2018-10-21T07:39:09.654Z,10.07
2018-10-21T07:41:38.984Z,9.40
2018-10-21T07:44:08.106Z,9.97
2018-10-21T07:46:37.435Z,9.80
2018-10-21T07:49:06.939Z,10.17
2018-10-21T07:51:36.053Z,12.83
2018-10-21T07:54:05.653Z,10.10
2018-10-21T07:56:34.866Z,9.88
2018-10-21T07:59:04.004Z,11.00
2018-10-21T08:01:33.264Z,10.50
2018-10-21T08:04:02.723Z,9.80
2018-10-21T08:06:43.376Z,10.83
2018-10-21T08:09:12.922Z,10.73
2018-10-21T08:11:42.069Z,11.50
2018-10-21T08:14:11.191Z,8.47
2018-10-21T08:16:40.343Z,13.00
2018-10-21T08:19:09.607Z,11.13
2018-10-21T08:21:38.910Z,10.30
2018-10-21T08:24:08.094Z,10.77
2018-10-21T08:26:37.250Z,10.97
2018-10-21T08:29:06.755Z,9.93
2018-10-21T08:31:35.907Z,10.30
2018-10-21T08:34:05.418Z,9.37
2018-10-21T08:36:34.539Z,10.50
2018-10-21T08:39:04.520Z,8.80
2018-10-21T08:41:33.678Z,11.00
2018-10-21T08:44:02.879Z,10.40
2018-10-21T08:46:32.093Z,11.37
2018-10-21T08:49:01.242Z,9.33
2018-10-21T08:51:30.387Z,11.40
2018-10-21T08:53:59.583Z,10.17
2018-10-21T08:56:28.725Z,10.90
2018-10-21T08:58:58.648Z,11.17
2018-10-21T09:01:27.896Z,11.40
2018-10-21T09:03:57.065Z,10.90
2018-10-21T09:06:26.226Z,10.23
2018-10-21T09:08:55.439Z,12.50
2018-10-21T09:11:24.714Z,10.18
2018-10-21T09:13:54.411Z,11.43
2018-10-21T09:16:23.600Z,10.33
2018-10-21T09:18:53.624Z,9.60
2018-10-21T09:21:22.870Z,14.03
2018-10-21T09:23:52.035Z,10.37
2018-10-21T09:26:21.203Z,10.97
2018-10-21T09:28:50.389Z,9.90
2018-10-21T09:31:19.531Z,11.37
2018-10-21T09:33:48.681Z,11.33
2018-10-21T09:36:17.904Z,12.20
2018-10-21T09:38:47.776Z,11.47
2018-10-21T09:41:16.995Z,13.00
2018-10-21T09:43:46.259Z,12.50
2018-10-21T09:46:15.512Z,12.50
2018-10-21T09:48:44.609Z,11.47
2018-10-21T09:51:13.980Z,26.60
2018-10-21T09:53:43.146Z,11.30
2018-10-21T09:56:12.370Z,12.10
2018-10-21T09:58:41.603Z,12.23
2018-10-21T10:01:16.094Z,13.27
2018-10-21T10:03:45.231Z,14.50
2018-10-21T10:06:14.341Z,15.50
2018-10-21T10:08:43.526Z,12.57
2018-10-21T10:11:13.217Z,12.90
2018-10-21T10:13:42.436Z,11.83
2018-10-21T10:16:11.626Z,17.03
2018-10-21T10:18:40.783Z,28.38
2018-10-21T10:21:10.055Z,16.90
2018-10-21T10:23:39.200Z,17.40
2018-10-21T10:26:08.370Z,13.93
2018-10-21T10:28:37.526Z,14.50
2018-10-21T10:31:06.947Z,12.90
2018-10-21T10:33:36.074Z,14.80
2018-10-21T10:36:05.704Z,13.10
2018-10-21T10:38:34.833Z,13.40
2018-10-21T10:41:04.043Z,12.47
2018-10-21T10:43:33.226Z,12.70
2018-10-21T10:46:02.496Z,13.50
2018-10-21T10:48:31.681Z,12.57
2018-10-21T10:51:00.877Z,13.77
2018-10-21T10:53:30.460Z,16.00
2018-10-21T10:55:59.654Z,13.90
2018-10-21T10:58:28.827Z,14.33
2018-10-21T11:00:58.100Z,14.90
2018-10-21T11:03:27.430Z,14.10
2018-10-21T11:05:56.633Z,13.73
2018-10-21T11:08:25.834Z,13.60
2018-10-21T11:10:55.067Z,12.97
2018-10-21T11:13:24.272Z,13.28
2018-10-21T11:15:53.507Z,14.30
2018-10-21T11:18:22.842Z,13.73
2018-10-21T11:20:52.156Z,13.33
2018-10-21T11:23:21.452Z,12.80
2018-10-21T11:25:51.597Z,13.87
2018-10-21T11:28:22.106Z,14.00
2018-10-21T11:30:51.346Z,13.37
2018-10-21T11:33:20.518Z,13.30
2018-10-21T11:35:49.811Z,14.10
2018-10-21T11:38:19.102Z,16.82
2018-10-21T11:40:48.408Z,13.83
2018-10-21T11:43:17.638Z,13.77
2018-10-21T11:45:47.213Z,14.77
2018-10-21T11:48:16.299Z,14.50
2018-10-21T11:50:45.479Z,15.40
2018-10-21T11:53:14.642Z,15.10
2018-10-21T11:55:43.882Z,16.73
2018-10-21T11:58:14.398Z,14.20
2018-10-21T12:00:44.641Z,14.77
2018-10-21T12:03:13.940Z,13.50
2018-10-21T12:05:43.633Z,14.40
2018-10-21T12:08:13.575Z,14.90
2018-10-21T12:10:42.751Z,15.90
2018-10-21T12:13:12.128Z,14.30
2018-10-21T12:15:41.265Z,13.83
2018-10-21T12:18:10.426Z,12.87
2018-10-21T12:20:39.966Z,13.37
2018-10-21T12:23:09.366Z,14.27
2018-10-21T12:25:38.579Z,12.47
2018-10-21T12:28:07.748Z,10.17
2018-10-21T12:30:36.922Z,9.10
2018-10-21T12:33:06.463Z,10.97
2018-10-21T12:35:35.639Z,9.78
2018-10-21T12:38:04.981Z,11.93
2018-10-21T12:40:34.141Z,10.67
2018-10-21T12:43:03.367Z,12.23
2018-10-21T12:45:32.616Z,9.73
2018-10-21T12:48:01.699Z,10.20
2018-10-21T12:50:30.859Z,9.17
2018-10-21T12:53:00.118Z,10.40
2018-10-21T12:55:29.262Z,9.20
2018-10-21T12:57:58.432Z,9.80
2018-10-21T13:00:27.665Z,10.13
2018-10-21T13:02:56.817Z,9.90
2018-10-21T13:05:25.966Z,9.60
2018-10-21T13:07:55.246Z,9.53
2018-10-21T13:10:24.399Z,9.70
2018-10-21T13:12:53.609Z,10.10
2018-10-21T13:15:22.797Z,10.17
2018-10-21T13:17:51.985Z,10.13
2018-10-21T13:20:21.225Z,8.40
2018-10-21T13:22:50.477Z,8.28
2018-10-21T13:25:19.727Z,12.82
2018-10-21T13:27:48.938Z,20.82
2018-10-21T13:30:18.152Z,19.27
2018-10-21T13:32:47.357Z,13.87
2018-10-21T13:35:16.528Z,7.07
2018-10-21T13:37:45.716Z,9.00
2018-10-21T13:40:14.998Z,9.90
2018-10-21T13:42:44.223Z,7.93
2018-10-21T13:45:13.534Z,8.00
2018-10-21T13:47:42.674Z,7.20
2018-10-21T13:50:11.883Z,8.27
2018-10-21T13:52:41.162Z,8.00
2018-10-21T13:55:10.387Z,7.90
2018-10-21T13:57:39.550Z,7.00
2018-10-21T14:00:09.390Z,14.50
2018-10-21T14:02:39.036Z,7.60
2018-10-21T14:05:09.137Z,8.10
2018-10-21T14:07:38.421Z,8.00
2018-10-21T14:10:07.681Z,8.33
2018-10-21T14:12:36.790Z,7.33
2018-10-21T14:15:06.531Z,7.23
2018-10-21T14:17:35.709Z,6.73
2018-10-21T14:20:06.027Z,16.47
2018-10-21T14:22:35.519Z,8.80
2018-10-21T14:25:04.889Z,10.17
2018-10-21T14:27:34.020Z,7.13
2018-10-21T14:30:03.343Z,7.37
2018-10-21T14:32:32.423Z,8.30
2018-10-21T14:35:01.582Z,8.33
2018-10-21T14:37:30.750Z,8.37
2018-10-21T14:39:59.908Z,8.20
2018-10-21T14:42:29.720Z,8.27
2018-10-21T14:44:58.952Z,8.67
2018-10-21T14:47:28.194Z,6.20
2018-10-21T14:49:57.395Z,4.20
2018-10-21T14:52:26.612Z,4.03
2018-10-21T14:54:55.740Z,4.40
2018-10-21T14:57:24.888Z,4.42
2018-10-21T14:59:54.059Z,4.17
2018-10-21T15:02:23.193Z,3.77
2018-10-21T15:04:52.333Z,4.70
2018-10-21T15:07:21.523Z,4.85
2018-10-21T15:09:50.892Z,4.80
2018-10-21T15:12:19.988Z,4.90
2018-10-21T15:14:49.554Z,4.90
2018-10-21T15:17:18.687Z,4.90
2018-10-21T15:19:47.857Z,4.30
2018-10-21T15:22:17.123Z,6.73
2018-10-21T15:24:46.287Z,16.43
2018-10-21T15:27:17.249Z,10.03
2018-10-21T15:29:46.459Z,11.90
2018-10-21T15:32:15.700Z,10.93
2018-10-21T15:34:44.973Z,15.50
2018-10-21T15:37:14.208Z,11.22
2018-10-21T15:39:43.470Z,15.10
2018-10-21T15:42:12.695Z,12.73
2018-10-21T15:44:41.876Z,11.57
2018-10-21T15:47:11.245Z,12.68
2018-10-21T15:49:40.629Z,13.20
2018-10-21T15:52:09.857Z,13.53
2018-10-21T15:54:39.142Z,13.40
2018-10-21T15:57:08.500Z,15.00
2018-10-21T15:59:37.671Z,14.50
2018-10-21T16:02:06.935Z,13.80
2018-10-21T16:04:36.038Z,15.00
2018-10-21T16:07:05.571Z,15.85
2018-10-21T16:09:34.887Z,18.77
2018-10-21T16:12:05.266Z,15.17
2018-10-21T16:14:34.527Z,19.40
2018-10-21T16:17:03.674Z,16.83
2018-10-21T16:19:32.845Z,17.10
2018-10-21T16:22:02.163Z,23.90
2018-10-21T16:24:31.315Z,37.10
2018-10-21T16:27:00.596Z,20.67
2018-10-21T16:29:29.773Z,22.00
2018-10-21T16:31:58.993Z,19.77
2018-10-21T16:34:28.152Z,24.80
2018-10-21T16:36:57.346Z,27.27
2018-10-21T16:39:26.558Z,33.80
2018-10-21T16:41:55.729Z,21.30
2018-10-21T16:44:24.900Z,26.50
2018-10-21T16:46:54.156Z,23.63
2018-10-21T16:49:23.482Z,21.45
2018-10-21T16:51:52.786Z,20.23
2018-10-21T16:54:22.420Z,24.25
2018-10-21T16:56:51.458Z,22.60
2018-10-21T16:59:20.765Z,20.90
2018-10-21T17:01:49.988Z,22.20
2018-10-21T17:04:19.267Z,19.90
2018-10-21T17:06:48.547Z,18.80
2018-10-21T17:09:17.871Z,19.33
2018-10-21T17:11:47.063Z,20.80
2018-10-21T17:14:16.279Z,22.67
2018-10-21T17:16:45.544Z,22.67
2018-10-21T17:19:14.773Z,21.33
2018-10-21T17:21:44.382Z,19.73
2018-10-21T17:24:13.574Z,19.73
2018-10-21T17:26:42.755Z,18.93
2018-10-21T17:29:11.979Z,19.32
2018-10-21T17:31:41.189Z,22.43
2018-10-21T17:34:10.493Z,21.87
2018-10-21T17:36:39.613Z,22.83
2018-10-21T17:39:15.291Z,20.40
2018-10-21T17:41:44.666Z,19.07
2018-10-21T17:44:13.913Z,17.47
2018-10-21T17:46:43.444Z,16.27
2018-10-21T17:49:12.709Z,18.27
2018-10-21T17:51:42.446Z,16.20
2018-10-21T17:54:17.972Z,15.97
2018-10-21T17:56:52.387Z,20.48
2018-10-21T17:59:21.674Z,24.70
2018-10-21T18:01:51.125Z,115.37
2018-10-21T18:04:20.294Z,41.30
2018-10-21T18:06:49.650Z,68.47
2018-10-21T18:09:18.806Z,133.07
2018-10-21T18:11:47.993Z,31.17
2018-10-21T18:14:17.930Z,25.83
2018-10-21T18:16:47.390Z,19.90
2018-10-21T18:19:16.725Z,18.27
2018-10-21T18:21:45.865Z,17.30
2018-10-21T18:24:15.130Z,19.83
2018-10-21T18:26:44.426Z,17.40
2018-10-21T18:29:13.606Z,19.07
2018-10-21T18:31:42.821Z,19.13
2018-10-21T18:34:12.008Z,17.30
2018-10-21T18:36:41.193Z,21.60
2018-10-21T18:39:11.181Z,20.47
2018-10-21T18:41:40.422Z,19.90
2018-10-21T18:44:10.092Z,19.27
2018-10-21T18:46:39.391Z,20.00
2018-10-21T18:49:09.117Z,21.05
2018-10-21T18:51:38.331Z,26.80
2018-10-21T18:54:07.542Z,22.67
2018-10-21T18:56:36.855Z,18.30
2018-10-21T18:59:06.062Z,18.07
2018-10-21T19:01:35.237Z,17.87
2018-10-21T19:04:04.536Z,24.43
2018-10-21T19:06:33.812Z,20.17
2018-10-21T19:09:03.494Z,17.73
2018-10-21T19:11:32.685Z,21.90
2018-10-21T19:14:02.442Z,19.20
2018-10-21T19:16:31.744Z,16.60
2018-10-21T19:19:01.332Z,16.77
2018-10-21T19:21:36.112Z,17.20
2018-10-21T19:24:05.385Z,16.70
2018-10-21T19:26:34.954Z,16.70
2018-10-21T19:29:04.204Z,15.63
2018-10-21T19:31:33.654Z,16.00
2018-10-21T19:34:02.918Z,18.13
2018-10-21T19:36:32.334Z,16.77
2018-10-21T19:39:01.722Z,16.80
2018-10-21T19:41:31.040Z,16.97
2018-10-21T19:44:00.387Z,15.90
2018-10-21T19:46:29.592Z,17.17
2018-10-21T19:48:58.769Z,17.77
2018-10-21T19:51:27.947Z,16.35
2018-10-21T19:53:57.137Z,16.83
2018-10-21T19:56:26.321Z,16.40
2018-10-21T19:58:55.563Z,17.20
2018-10-21T20:01:25.318Z,16.13
2018-10-21T20:03:54.549Z,15.93
2018-10-21T20:06:23.711Z,15.67
2018-10-21T20:08:52.919Z,14.73
2018-10-21T20:11:22.122Z,15.53
2018-10-21T20:13:51.418Z,15.53
2018-10-21T20:16:21.025Z,16.33
2018-10-21T20:18:50.229Z,15.50
2018-10-21T20:21:19.473Z,16.35
2018-10-21T20:23:48.842Z,15.50
2018-10-21T20:26:18.062Z,15.90
2018-10-21T20:28:47.235Z,16.50
2018-10-21T20:31:16.586Z,16.27
2018-10-21T20:33:45.944Z,14.90
2018-10-21T20:36:15.582Z,15.00
2018-10-21T20:38:44.792Z,15.00
2018-10-21T20:41:14.019Z,14.40
2018-10-21T20:43:44.053Z,14.93
2018-10-21T20:46:13.536Z,13.93
2018-10-21T20:48:42.920Z,15.80
2018-10-21T20:51:12.299Z,15.13
2018-10-21T20:53:41.671Z,16.17
2018-10-21T20:56:11.082Z,16.67
2018-10-21T20:58:40.464Z,21.42
2018-10-21T21:01:09.722Z,22.10
2018-10-21T21:03:39.356Z,20.27
2018-10-21T21:06:09.537Z,17.73
2018-10-21T21:08:45.363Z,17.20
2018-10-21T21:11:15.058Z,15.00
2018-10-21T21:13:44.530Z,17.20
2018-10-21T21:16:14.246Z,16.60
2018-10-21T21:18:43.666Z,16.23
2018-10-21T21:21:12.988Z,17.20
2018-10-21T21:23:42.304Z,15.70
2018-10-21T21:26:11.503Z,17.00
2018-10-21T21:28:40.688Z,16.67
2018-10-21T21:31:10.290Z,16.10
2018-10-21T21:33:39.585Z,15.87
2018-10-21T21:36:09.466Z,14.60
2018-10-21T21:38:38.750Z,16.40
2018-10-21T21:41:08.234Z,16.17
2018-10-21T21:43:38.023Z,16.17
2018-10-21T21:46:07.699Z,14.50
2018-10-21T21:48:37.157Z,14.10
2018-10-21T21:51:06.550Z,14.03
2018-10-21T21:53:35.883Z,13.37
2018-10-21T21:56:05.236Z,12.87
2018-10-21T21:58:34.416Z,15.00
2018-10-21T22:01:03.601Z,14.50
2018-10-21T22:03:32.828Z,15.47
2018-10-21T22:06:02.041Z,14.40
2018-10-21T22:08:31.247Z,14.60
2018-10-21T22:11:00.562Z,13.40
2018-10-21T22:13:29.758Z,13.97
2018-10-21T22:15:58.982Z,13.70
2018-10-21T22:18:28.160Z,14.57
2018-10-21T22:20:57.407Z,15.37
2018-10-21T22:23:27.051Z,14.33
2018-10-21T22:25:56.256Z,13.57
2018-10-21T22:28:25.487Z,13.70
2018-10-21T22:30:54.946Z,13.07
2018-10-21T22:33:24.198Z,13.32
2018-10-21T22:35:53.727Z,13.43
2018-10-21T22:38:24.001Z,13.57
2018-10-21T22:40:53.231Z,13.08
2018-10-21T22:43:22.459Z,13.70
2018-10-21T22:45:51.674Z,13.50
2018-10-21T22:48:20.938Z,14.87
2018-10-21T22:50:57.396Z,14.67
2018-10-21T22:53:26.613Z,14.80
2018-10-21T22:55:55.849Z,13.90
2018-10-21T22:58:25.088Z,13.87
2018-10-21T23:00:54.345Z,14.73
2018-10-21T23:03:23.574Z,15.10
2018-10-21T23:05:52.925Z,17.20
2018-10-21T23:08:22.157Z,17.00
2018-10-21T23:10:51.348Z,16.50
2018-10-21T23:13:20.545Z,16.65
2018-10-21T23:15:49.799Z,16.00
2018-10-21T23:18:19.061Z,15.10
2018-10-21T23:20:48.310Z,15.97
2018-10-21T23:23:17.546Z,15.70
2018-10-21T23:25:46.768Z,16.40
2018-10-21T23:28:16.046Z,15.87
2018-10-21T23:30:45.324Z,15.37
2018-10-21T23:33:14.542Z,16.80
2018-10-21T23:35:43.743Z,15.27
2018-10-21T23:38:12.961Z,14.57
2018-10-21T23:40:42.252Z,15.73
2018-10-21T23:43:11.432Z,15.83
2018-10-21T23:45:40.661Z,15.90
2018-10-21T23:48:09.978Z,15.00
2018-10-21T23:50:39.230Z,16.33
2018-10-21T23:53:08.734Z,16.12
2018-10-21T23:55:38.058Z,18.80
2018-10-21T23:58:07.394Z,18.50
